sensor_id;sensor_type;location;lat;lon;timestamp;pressure;altitude;pressure_sealevel;temperature;humidity
56630;BME280;42502;40.732;-74.254;2023-05-14T00:00:12;100622.94;;;30.34;32.57
56630;BME280;42502;40.732;-74.254;2023-05-14T00:02:13;100627.38;;;30.35;32.88
56630;BME280;42502;40.732;-74.254;2023-05-14T00:04:14;100632.28;;;30.35;32.57
56630;BME280;42502;40.732;-74.254;2023-05-14T00:06:15;100636.34;;;30.34;32.59
56630;BME280;42502;40.732;-74.254;2023-05-14T00:08:16;100643.69;;;30.35;32.53
56630;BME280;42502;40.732;-74.254;2023-05-14T00:10:17;100641.25;;;30.33;32.90
56630;BME280;42502;40.732;-74.254;2023-05-14T00:12:19;100639.19;;;30.34;32.92
56630;BME280;42502;40.732;-74.254;2023-05-14T00:14:20;100644.53;;;30.32;32.91
56630;BME280;42502;40.732;-74.254;2023-05-14T00:16:21;100646.16;;;30.33;33.03
56630;BME280;42502;40.732;-74.254;2023-05-14T00:18:22;100648.19;;;30.32;32.66
56630;BME280;42502;40.732;-74.254;2023-05-14T00:20:23;100655.94;;;30.32;32.49
56630;BME280;42502;40.732;-74.254;2023-05-14T00:22:23;100659.56;;;30.32;32.45
56630;BME280;42502;40.732;-74.254;2023-05-14T00:24:24;100647.38;;;30.32;32.92
56630;BME280;42502;40.732;-74.254;2023-05-14T00:26:25;100652.28;;;30.31;32.91
56630;BME280;42502;40.732;-74.254;2023-05-14T00:28:26;100667.31;;;30.32;32.54
56630;BME280;42502;40.732;-74.254;2023-05-14T00:30:27;100659.63;;;30.28;32.61
56630;BME280;42502;40.732;-74.254;2023-05-14T00:32:27;100670.59;;;30.30;32.84
56630;BME280;42502;40.732;-74.254;2023-05-14T00:34:28;100674.25;;;30.30;32.96
56630;BME280;42502;40.732;-74.254;2023-05-14T00:36:29;100678.78;;;30.28;32.87
56630;BME280;42502;40.732;-74.254;2023-05-14T00:38:30;100678.34;;;30.29;32.48
56630;BME280;42502;40.732;-74.254;2023-05-14T00:40:31;100687.31;;;30.28;32.62
56630;BME280;42502;40.732;-74.254;2023-05-14T00:42:32;100684.03;;;30.29;32.49
56630;BME280;42502;40.732;-74.254;2023-05-14T00:44:33;100689.34;;;30.27;32.85
56630;BME280;42502;40.732;-74.254;2023-05-14T00:46:34;100689.34;;;30.27;32.91
56630;BME280;42502;40.732;-74.254;2023-05-14T00:48:35;100690.16;;;30.28;32.91
56630;BME280;42502;40.732;-74.254;2023-05-14T00:50:36;100697.88;;;30.27;32.79
56630;BME280;42502;40.732;-74.254;2023-05-14T00:52:37;100695.03;;;30.27;32.62
56630;BME280;42502;40.732;-74.254;2023-05-14T00:54:38;100689.38;;;30.24;32.43
56630;BME280;42502;40.732;-74.254;2023-05-14T00:56:39;100701.16;;;30.26;32.79
56630;BME280;42502;40.732;-74.254;2023-05-14T00:58:40;100706.06;;;30.25;32.44
56630;BME280;42502;40.732;-74.254;2023-05-14T01:00:41;100714.59;;;30.25;32.43
56630;BME280;42502;40.732;-74.254;2023-05-14T01:02:42;100712.97;;;30.24;32.56
56630;BME280;42502;40.732;-74.254;2023-05-14T01:04:43;100721.53;;;30.24;32.22
56630;BME280;42502;40.732;-74.254;2023-05-14T01:09:04;100721.94;;;30.23;32.39
56630;BME280;42502;40.732;-74.254;2023-05-14T01:15:27;100733.75;;;30.21;32.52
56630;BME280;42502;40.732;-74.254;2023-05-14T01:17:32;100737.88;;;30.20;32.58
56630;BME280;42502;40.732;-74.254;2023-05-14T01:19:42;100741.50;;;30.21;32.28
56630;BME280;42502;40.732;-74.254;2023-05-14T01:21:43;100747.22;;;30.21;32.14
56630;BME280;42502;40.732;-74.254;2023-05-14T01:23:45;100753.34;;;30.19;32.70
56630;BME280;42502;40.732;-74.254;2023-05-14T01:25:45;100753.34;;;30.19;32.53
56630;BME280;42502;40.732;-74.254;2023-05-14T01:28:00;100752.53;;;30.15;32.66
56630;BME280;42502;40.732;-74.254;2023-05-14T01:30:24;100748.91;;;30.15;32.30
56630;BME280;42502;40.732;-74.254;2023-05-14T01:32:29;100763.53;;;30.17;32.34
56630;BME280;42502;40.732;-74.254;2023-05-14T01:34:32;100762.34;;;30.14;32.46
56630;BME280;42502;40.732;-74.254;2023-05-14T01:36:34;100767.63;;;30.16;32.14
56630;BME280;42502;40.732;-74.254;2023-05-14T01:38:36;100771.69;;;30.15;32.47
56630;BME280;42502;40.732;-74.254;2023-05-14T01:40:38;100774.94;;;30.13;32.27
56630;BME280;42502;40.732;-74.254;2023-05-14T01:42:39;100782.28;;;30.14;32.07
56630;BME280;42502;40.732;-74.254;2023-05-14T01:44:41;100791.25;;;30.12;32.29
56630;BME280;42502;40.732;-74.254;2023-05-14T01:46:41;100794.91;;;30.13;32.14
56630;BME280;42502;40.732;-74.254;2023-05-14T01:48:42;100787.56;;;30.12;32.42
56630;BME280;42502;40.732;-74.254;2023-05-14T01:50:43;100792.47;;;30.11;32.50
56630;BME280;42502;40.732;-74.254;2023-05-14T01:52:44;100794.50;;;30.11;32.15
56630;BME280;42502;40.732;-74.254;2023-05-14T01:54:47;100805.09;;;30.10;32.50
56630;BME280;42502;40.732;-74.254;2023-05-14T01:56:48;100798.59;;;30.10;31.88
56630;BME280;42502;40.732;-74.254;2023-05-14T01:58:49;100801.06;;;30.08;32.26
56630;BME280;42502;40.732;-74.254;2023-05-14T02:00:49;100804.69;;;30.08;32.22
56630;BME280;42502;40.732;-74.254;2023-05-14T02:02:50;100813.25;;;30.08;32.62
56630;BME280;42502;40.732;-74.254;2023-05-14T02:04:51;100819.38;;;30.07;32.37
56630;BME280;42502;40.732;-74.254;2023-05-14T02:06:52;100819.38;;;30.07;32.51
56630;BME280;42502;40.732;-74.254;2023-05-14T02:08:53;100810.81;;;30.07;32.38
56630;BME280;42502;40.732;-74.254;2023-05-14T02:10:54;100819.78;;;30.05;31.92
56630;BME280;42502;40.732;-74.254;2023-05-14T02:12:55;100816.56;;;30.00;32.04
56630;BME280;42502;40.732;-74.254;2023-05-14T02:14:55;100827.91;;;30.03;32.05
56630;BME280;42502;40.732;-74.254;2023-05-14T02:16:56;100828.75;;;30.04;32.26
56630;BME280;42502;40.732;-74.254;2023-05-14T02:18:57;100829.97;;;30.03;31.87
56630;BME280;42502;40.732;-74.254;2023-05-14T02:20:58;100836.88;;;30.02;32.41
56630;BME280;42502;40.732;-74.254;2023-05-14T02:22:59;100838.13;;;30.01;31.82
56630;BME280;42502;40.732;-74.254;2023-05-14T02:24:59;100846.66;;;30.01;31.91
56630;BME280;42502;40.732;-74.254;2023-05-14T02:27:00;100847.88;;;30.00;31.91
56630;BME280;42502;40.732;-74.254;2023-05-14T02:29:01;100845.44;;;29.98;32.27
56630;BME280;42502;40.732;-74.254;2023-05-14T02:31:02;100844.66;;;29.98;32.10
56630;BME280;42502;40.732;-74.254;2023-05-14T02:33:03;100846.25;;;29.99;32.23
56630;BME280;42502;40.732;-74.254;2023-05-14T02:35:04;100836.53;;;29.96;32.16
56630;BME280;42502;40.732;-74.254;2023-05-14T02:37:05;100832.84;;;29.95;32.02
56630;BME280;42502;40.732;-74.254;2023-05-14T02:39:06;100843.03;;;29.97;31.73
56630;BME280;42502;40.732;-74.254;2023-05-14T02:41:06;100855.22;;;29.97;32.10
56630;BME280;42502;40.732;-74.254;2023-05-14T02:43:07;100849.13;;;29.95;32.14
56630;BME280;42502;40.732;-74.254;2023-05-14T02:45:08;100851.19;;;29.94;31.96
56630;BME280;42502;40.732;-74.254;2023-05-14T02:47:09;100865.41;;;29.94;31.72
56630;BME280;42502;40.732;-74.254;2023-05-14T02:49:10;100868.69;;;29.93;32.11
56630;BME280;42502;40.732;-74.254;2023-05-14T02:51:11;100874.38;;;29.93;31.86
56630;BME280;42502;40.732;-74.254;2023-05-14T02:53:12;100859.31;;;29.92;32.11
56630;BME280;42502;40.732;-74.254;2023-05-14T02:55:12;100866.25;;;29.91;32.09
56630;BME280;42502;40.732;-74.254;2023-05-14T02:57:16;100854.03;;;29.91;32.00
56630;BME280;42502;40.732;-74.254;2023-05-14T02:59:16;100858.94;;;29.90;31.59
56630;BME280;42502;40.732;-74.254;2023-05-14T03:01:17;100877.22;;;29.89;32.10
56630;BME280;42502;40.732;-74.254;2023-05-14T03:03:19;100881.31;;;29.88;31.68
56630;BME280;42502;40.732;-74.254;2023-05-14T03:05:19;100881.75;;;29.87;31.93
56630;BME280;42502;40.732;-74.254;2023-05-14T03:07:23;100886.59;;;29.86;31.90
56630;BME280;42502;40.732;-74.254;2023-05-14T03:09:24;100893.13;;;29.87;31.61
56630;BME280;42502;40.732;-74.254;2023-05-14T03:11:25;100881.31;;;29.85;31.48
56630;BME280;42502;40.732;-74.254;2023-05-14T03:13:25;100887.03;;;29.85;32.03
56630;BME280;42502;40.732;-74.254;2023-05-14T03:15:26;100886.22;;;29.84;31.52
56630;BME280;42502;40.732;-74.254;2023-05-14T03:17:27;100904.53;;;29.83;31.58
56630;BME280;42502;40.732;-74.254;2023-05-14T03:19:28;100898.03;;;29.83;31.79
56630;BME280;42502;40.732;-74.254;2023-05-14T03:21:29;100896.38;;;29.82;31.72
56630;BME280;42502;40.732;-74.254;2023-05-14T03:23:30;100909.81;;;29.81;31.88
56630;BME280;42502;40.732;-74.254;2023-05-14T03:25:34;100904.50;;;29.80;31.66
56630;BME280;42502;40.732;-74.254;2023-05-14T03:27:35;100905.31;;;29.80;31.76
56630;BME280;42502;40.732;-74.254;2023-05-14T03:29:35;100912.25;;;29.79;31.41
56630;BME280;42502;40.732;-74.254;2023-05-14T03:31:36;100915.50;;;29.77;31.34
56630;BME280;42502;40.732;-74.254;2023-05-14T03:33:37;100912.66;;;29.77;31.80
56630;BME280;42502;40.732;-74.254;2023-05-14T03:35:38;100919.56;;;29.76;31.33
56630;BME280;42502;40.732;-74.254;2023-05-14T03:37:39;100920.78;;;29.75;31.40
56630;BME280;42502;40.732;-74.254;2023-05-14T03:39:39;100920.78;;;29.75;31.65
56630;BME280;42502;40.732;-74.254;2023-05-14T03:41:40;100927.69;;;29.74;31.73
56630;BME280;42502;40.732;-74.254;2023-05-14T03:43:41;100928.13;;;29.73;31.67
56630;BME280;42502;40.732;-74.254;2023-05-14T03:45:42;100930.56;;;29.71;31.64
56630;BME280;42502;40.732;-74.254;2023-05-14T03:47:43;100941.56;;;29.72;31.67
56630;BME280;42502;40.732;-74.254;2023-05-14T03:49:44;100943.59;;;29.72;31.68
56630;BME280;42502;40.732;-74.254;2023-05-14T03:51:45;100936.69;;;29.69;31.68
56630;BME280;42502;40.732;-74.254;2023-05-14T03:53:45;100941.56;;;29.69;31.55
56630;BME280;42502;40.732;-74.254;2023-05-14T03:55:46;100948.06;;;29.69;31.60
56630;BME280;42502;40.732;-74.254;2023-05-14T03:57:47;100949.28;;;29.68;31.29
56630;BME280;42502;40.732;-74.254;2023-05-14T03:59:48;100948.47;;;29.68;31.69
56630;BME280;42502;40.732;-74.254;2023-05-14T04:01:49;100946.03;;;29.66;31.67
56630;BME280;42502;40.732;-74.254;2023-05-14T04:03:50;100944.41;;;29.65;31.19
56630;BME280;42502;40.732;-74.254;2023-05-14T04:05:51;100949.31;;;29.65;31.53
56630;BME280;42502;40.732;-74.254;2023-05-14T04:07:51;100953.38;;;29.64;31.46
56630;BME280;42502;40.732;-74.254;2023-05-14T04:09:52;100946.06;;;29.63;31.45
56630;BME280;42502;40.732;-74.254;2023-05-14T04:11:53;100948.91;;;29.63;31.05
56630;BME280;42502;40.732;-74.254;2023-05-14T04:13:54;100942.81;;;29.60;31.44
56630;BME280;42502;40.732;-74.254;2023-05-14T04:15:55;100939.97;;;29.60;31.02
56630;BME280;42502;40.732;-74.254;2023-05-14T04:17:55;100943.22;;;29.59;31.55
56630;BME280;42502;40.732;-74.254;2023-05-14T04:19:56;100937.94;;;29.57;31.07
56630;BME280;42502;40.732;-74.254;2023-05-14T04:21:57;100947.31;;;29.58;31.04
56630;BME280;42502;40.732;-74.254;2023-05-14T04:23:58;100943.63;;;29.57;31.02
56630;BME280;42502;40.732;-74.254;2023-05-14T04:25:58;100947.72;;;29.56;31.18
56630;BME280;42502;40.732;-74.254;2023-05-14T04:27:59;100939.59;;;29.55;30.93
56630;BME280;42502;40.732;-74.254;2023-05-14T04:30:00;100949.34;;;29.54;31.05
56630;BME280;42502;40.732;-74.254;2023-05-14T04:32:01;100948.53;;;29.53;30.86
56630;BME280;42502;40.732;-74.254;2023-05-14T04:34:02;100954.22;;;29.53;30.98
56630;BME280;42502;40.732;-74.254;2023-05-14T04:36:03;100953.41;;;29.53;31.47
56630;BME280;42502;40.732;-74.254;2023-05-14T04:38:04;100959.50;;;29.51;31.04
56630;BME280;42502;40.732;-74.254;2023-05-14T04:40:06;100955.84;;;29.51;30.99
56630;BME280;42502;40.732;-74.254;2023-05-14T04:42:07;100956.66;;;29.51;30.87
56630;BME280;42502;40.732;-74.254;2023-05-14T04:44:11;100957.06;;;29.50;31.11
56630;BME280;42502;40.732;-74.254;2023-05-14T04:46:12;100959.09;;;29.49;31.29
56630;BME280;42502;40.732;-74.254;2023-05-14T04:48:15;100955.88;;;29.47;31.15
56630;BME280;42502;40.732;-74.254;2023-05-14T04:50:16;100962.38;;;29.48;31.29
56630;BME280;42502;40.732;-74.254;2023-05-14T04:52:17;100959.94;;;29.46;30.73
56630;BME280;42502;40.732;-74.254;2023-05-14T04:54:18;100957.88;;;29.47;30.62
56630;BME280;42502;40.732;-74.254;2023-05-14T04:56:19;100959.91;;;29.42;31.02
56630;BME280;42502;40.732;-74.254;2023-05-14T04:58:20;100959.13;;;29.46;30.69
56630;BME280;42502;40.732;-74.254;2023-05-14T05:00:23;100966.03;;;29.45;30.61
56630;BME280;42502;40.732;-74.254;2023-05-14T05:02:23;100968.88;;;29.45;30.93
56630;BME280;42502;40.732;-74.254;2023-05-14T05:04:24;100960.75;;;29.43;31.00
56630;BME280;42502;40.732;-74.254;2023-05-14T05:06:25;100968.47;;;29.42;30.55
56630;BME280;42502;40.732;-74.254;2023-05-14T05:08:26;100965.63;;;29.42;30.58
56630;BME280;42502;40.732;-74.254;2023-05-14T05:10:27;100956.28;;;29.42;30.96
56630;BME280;42502;40.732;-74.254;2023-05-14T05:12:28;100966.03;;;29.41;30.96
56630;BME280;42502;40.732;-74.254;2023-05-14T05:14:29;100962.38;;;29.40;30.55
56630;BME280;42502;40.732;-74.254;2023-05-14T05:16:30;100961.56;;;29.40;30.44
56630;BME280;42502;40.732;-74.254;2023-05-14T05:18:31;100962.38;;;29.37;30.80
56630;BME280;42502;40.732;-74.254;2023-05-14T05:20:31;100959.13;;;29.35;30.75
56630;BME280;42502;40.732;-74.254;2023-05-14T05:22:32;100956.28;;;29.35;30.55
56630;BME280;42502;40.732;-74.254;2023-05-14T05:24:33;100960.75;;;29.36;30.92
56630;BME280;42502;40.732;-74.254;2023-05-14T05:26:34;100958.31;;;29.34;30.88
56630;BME280;42502;40.732;-74.254;2023-05-14T05:28:38;100958.31;;;29.34;30.39
56630;BME280;42502;40.732;-74.254;2023-05-14T05:30:41;100957.09;;;29.32;30.92
56630;BME280;42502;40.732;-74.254;2023-05-14T05:32:44;100959.13;;;29.31;30.91
56630;BME280;42502;40.732;-74.254;2023-05-14T05:34:45;100968.06;;;29.33;30.73
56630;BME280;42502;40.732;-74.254;2023-05-14T05:36:45;100972.97;;;29.33;30.36
56630;BME280;42502;40.732;-74.254;2023-05-14T05:38:46;100970.53;;;29.31;30.27
56630;BME280;42502;40.732;-74.254;2023-05-14T05:40:47;100975.81;;;29.29;30.74
56630;BME280;42502;40.732;-74.254;2023-05-14T05:42:48;100980.69;;;29.29;30.57
56630;BME280;42502;40.732;-74.254;2023-05-14T05:44:49;100974.59;;;29.27;30.70
56630;BME280;42502;40.732;-74.254;2023-05-14T05:46:49;100984.34;;;29.26;30.71
56630;BME280;42502;40.732;-74.254;2023-05-14T05:48:50;100985.59;;;29.24;30.75
56630;BME280;42502;40.732;-74.254;2023-05-14T05:50:52;100993.28;;;29.24;30.72
56630;BME280;42502;40.732;-74.254;2023-05-14T05:52:53;100979.47;;;29.22;30.38
56630;BME280;42502;40.732;-74.254;2023-05-14T05:54:54;100989.25;;;29.21;30.77
56630;BME280;42502;40.732;-74.254;2023-05-14T05:56:55;100983.94;;;29.20;30.22
56630;BME280;42502;40.732;-74.254;2023-05-14T05:58:56;100998.97;;;29.20;30.69
56630;BME280;42502;40.732;-74.254;2023-05-14T06:00:57;100995.72;;;29.18;30.37
56630;BME280;42502;40.732;-74.254;2023-05-14T06:02:57;100992.03;;;29.18;30.66
56630;BME280;42502;40.732;-74.254;2023-05-14T06:04:58;100987.59;;;29.17;30.59
56630;BME280;42502;40.732;-74.254;2023-05-14T06:06:59;101000.97;;;29.16;30.67
56630;BME280;42502;40.732;-74.254;2023-05-14T06:09:00;100998.53;;;29.15;30.64
56630;BME280;42502;40.732;-74.254;2023-05-14T06:11:01;100998.94;;;29.13;30.36
56630;BME280;42502;40.732;-74.254;2023-05-14T06:13:02;101000.16;;;29.12;30.27
56630;BME280;42502;40.732;-74.254;2023-05-14T06:15:03;100992.88;;;29.11;30.68
56630;BME280;42502;40.732;-74.254;2023-05-14T06:17:04;101000.56;;;29.11;30.61
56630;BME280;42502;40.732;-74.254;2023-05-14T06:19:04;101006.25;;;29.11;30.49
56630;BME280;42502;40.732;-74.254;2023-05-14T06:21:05;101003.81;;;29.09;30.16
56630;BME280;42502;40.732;-74.254;2023-05-14T06:23:07;101007.06;;;29.07;30.52
56630;BME280;42502;40.732;-74.254;2023-05-14T06:25:08;101004.63;;;29.06;30.59
56630;BME280;42502;40.732;-74.254;2023-05-14T06:27:09;101009.50;;;29.05;30.42
56630;BME280;42502;40.732;-74.254;2023-05-14T06:29:13;101000.59;;;29.03;30.32
56630;BME280;42502;40.732;-74.254;2023-05-14T06:31:14;101008.28;;;29.03;30.09
56630;BME280;42502;40.732;-74.254;2023-05-14T06:33:15;101001.00;;;29.02;30.66
56630;BME280;42502;40.732;-74.254;2023-05-14T06:35:16;101007.88;;;29.01;30.46
56630;BME280;42502;40.732;-74.254;2023-05-14T06:37:18;101000.56;;;29.00;30.28
56630;BME280;42502;40.732;-74.254;2023-05-14T06:39:18;101004.66;;;28.99;30.16
56630;BME280;42502;40.732;-74.254;2023-05-14T06:41:19;101001.38;;;28.97;30.58
56630;BME280;42502;40.732;-74.254;2023-05-14T06:43:20;101007.91;;;28.97;30.40
56630;BME280;42502;40.732;-74.254;2023-05-14T06:45:21;101011.16;;;28.96;30.50
56630;BME280;42502;40.732;-74.254;2023-05-14T06:47:22;101018.84;;;28.95;30.24
56630;BME280;42502;40.732;-74.254;2023-05-14T06:49:23;101013.56;;;28.94;30.11
56630;BME280;42502;40.732;-74.254;2023-05-14T06:51:26;101024.13;;;28.93;30.21
56630;BME280;42502;40.732;-74.254;2023-05-14T06:53:27;101013.16;;;28.92;30.39
56630;BME280;42502;40.732;-74.254;2023-05-14T06:55:28;101016.41;;;28.90;30.06
56630;BME280;42502;40.732;-74.254;2023-05-14T06:57:29;101024.94;;;28.90;30.13
56630;BME280;42502;40.732;-74.254;2023-05-14T06:59:30;101025.34;;;28.88;30.40
56630;BME280;42502;40.732;-74.254;2023-05-14T07:01:33;101029.00;;;28.89;30.06
56630;BME280;42502;40.732;-74.254;2023-05-14T07:03:33;101031.84;;;28.85;30.11
56630;BME280;42502;40.732;-74.254;2023-05-14T07:05:34;101039.97;;;28.87;30.37
56630;BME280;42502;40.732;-74.254;2023-05-14T07:07:35;101043.22;;;28.85;30.31
56630;BME280;42502;40.732;-74.254;2023-05-14T07:09:36;101044.44;;;28.84;30.12
56630;BME280;42502;40.732;-74.254;2023-05-14T07:11:36;101040.78;;;28.84;29.93
56630;BME280;42502;40.732;-74.254;2023-05-14T07:13:38;101047.69;;;28.83;30.18
56630;BME280;42502;40.732;-74.254;2023-05-14T07:15:39;101048.06;;;28.81;29.96
56630;BME280;42502;40.732;-74.254;2023-05-14T07:17:40;101042.00;;;28.79;30.27
56630;BME280;42502;40.732;-74.254;2023-05-14T07:19:41;101044.41;;;28.77;30.13
56630;BME280;42502;40.732;-74.254;2023-05-14T07:21:41;101050.09;;;28.77;30.30
56630;BME280;42502;40.732;-74.254;2023-05-14T07:23:42;101048.47;;;28.76;30.20
56630;BME280;42502;40.732;-74.254;2023-05-14T07:25:43;101053.34;;;28.76;30.25
56630;BME280;42502;40.732;-74.254;2023-05-14T07:27:44;101059.44;;;28.74;29.76
56630;BME280;42502;40.732;-74.254;2023-05-14T07:29:44;101059.44;;;28.74;30.04
56630;BME280;42502;40.732;-74.254;2023-05-14T07:31:45;101064.72;;;28.72;29.83
56630;BME280;42502;40.732;-74.254;2023-05-14T07:33:46;101067.97;;;28.70;29.97
56630;BME280;42502;40.732;-74.254;2023-05-14T07:35:47;101072.41;;;28.68;29.91
56630;BME280;42502;40.732;-74.254;2023-05-14T07:37:48;101067.13;;;28.66;30.08
56630;BME280;42502;40.732;-74.254;2023-05-14T07:39:48;101076.50;;;28.67;29.92
56630;BME280;42502;40.732;-74.254;2023-05-14T07:41:50;101077.69;;;28.66;30.32
56630;BME280;42502;40.732;-74.254;2023-05-14T07:43:50;101073.22;;;28.65;29.94
56630;BME280;42502;40.732;-74.254;2023-05-14T07:45:51;101073.63;;;28.63;29.76
56630;BME280;42502;40.732;-74.254;2023-05-14T07:47:52;101077.69;;;28.62;30.25
56630;BME280;42502;40.732;-74.254;2023-05-14T07:49:54;101084.97;;;28.60;29.83
56630;BME280;42502;40.732;-74.254;2023-05-14T07:51:55;101092.31;;;28.61;29.82
56630;BME280;42502;40.732;-74.254;2023-05-14T07:53:56;101098.38;;;28.59;29.92
56630;BME280;42502;40.732;-74.254;2023-05-14T07:55:57;101093.06;;;28.58;29.97
56630;BME280;42502;40.732;-74.254;2023-05-14T07:57:59;101091.44;;;28.57;29.66
56630;BME280;42502;40.732;-74.254;2023-05-14T08:00:00;101081.28;;;28.56;30.24
56630;BME280;42502;40.732;-74.254;2023-05-14T08:02:01;101095.47;;;28.56;29.76
56630;BME280;42502;40.732;-74.254;2023-05-14T08:04:02;101090.19;;;28.54;29.65
56630;BME280;42502;40.732;-74.254;2023-05-14T08:06:02;101097.13;;;28.53;30.14
56630;BME280;42502;40.732;-74.254;2023-05-14T08:08:04;101095.47;;;28.52;29.99
56630;BME280;42502;40.732;-74.254;2023-05-14T08:10:05;101098.72;;;28.50;30.14
56630;BME280;42502;40.732;-74.254;2023-05-14T08:12:07;101101.56;;;28.50;30.12
56630;BME280;42502;40.732;-74.254;2023-05-14T08:14:08;101097.88;;;28.50;29.93
56630;BME280;42502;40.732;-74.254;2023-05-14T08:16:09;101097.47;;;28.48;30.01
56630;BME280;42502;40.732;-74.254;2023-05-14T08:18:10;101110.06;;;28.47;29.84
56630;BME280;42502;40.732;-74.254;2023-05-14T08:20:10;101101.13;;;28.45;30.01
56630;BME280;42502;40.732;-74.254;2023-05-14T08:22:11;101106.81;;;28.45;30.03
56630;BME280;42502;40.732;-74.254;2023-05-14T08:24:12;101110.06;;;28.43;30.10
56630;BME280;42502;40.732;-74.254;2023-05-14T08:26:13;101097.03;;;28.42;29.57
56630;BME280;42502;40.732;-74.254;2023-05-14T08:28:14;101109.25;;;28.43;29.92
56630;BME280;42502;40.732;-74.254;2023-05-14T08:30:15;101108.00;;;28.40;29.91
56630;BME280;42502;40.732;-74.254;2023-05-14T08:32:16;101107.19;;;28.40;30.08
56630;BME280;42502;40.732;-74.254;2023-05-14T08:34:17;101106.38;;;28.35;30.03
56630;BME280;42502;40.732;-74.254;2023-05-14T08:36:17;101117.34;;;28.37;29.58
56630;BME280;42502;40.732;-74.254;2023-05-14T08:38:18;101113.25;;;28.34;29.72
56630;BME280;42502;40.732;-74.254;2023-05-14T08:40:22;101113.25;;;28.34;29.81
56630;BME280;42502;40.732;-74.254;2023-05-14T08:42:23;101112.03;;;28.32;29.99
56630;BME280;42502;40.732;-74.254;2023-05-14T08:46:36;101116.88;;;28.31;29.88
56630;BME280;42502;40.732;-74.254;2023-05-14T08:48:39;101113.25;;;28.31;29.91
56630;BME280;42502;40.732;-74.254;2023-05-14T08:50:42;101103.91;;;28.30;29.48
56630;BME280;42502;40.732;-74.254;2023-05-14T08:52:43;101108.34;;;28.28;29.81
56630;BME280;42502;40.732;-74.254;2023-05-14T08:54:45;101106.72;;;28.27;29.69
56630;BME280;42502;40.732;-74.254;2023-05-14T08:56:47;101106.72;;;28.27;29.65
56630;BME280;42502;40.732;-74.254;2023-05-14T08:58:49;101109.16;;;28.25;29.55
56630;BME280;42502;40.732;-74.254;2023-05-14T09:00:49;101112.41;;;28.23;29.76
56630;BME280;42502;40.732;-74.254;2023-05-14T09:02:51;101112.78;;;28.22;29.75
56630;BME280;42502;40.732;-74.254;2023-05-14T09:04:57;101112.34;;;28.19;29.86
56630;BME280;42502;40.732;-74.254;2023-05-14T09:07:02;101114.38;;;28.19;29.77
56630;BME280;42502;40.732;-74.254;2023-05-14T09:09:03;101114.38;;;28.19;29.83
56630;BME280;42502;40.732;-74.254;2023-05-14T09:11:04;101116.44;;;28.18;29.47
56630;BME280;42502;40.732;-74.254;2023-05-14T09:13:05;101126.16;;;28.17;29.86
56630;BME280;42502;40.732;-74.254;2023-05-14T09:15:07;101134.66;;;28.17;29.91
56630;BME280;42502;40.732;-74.254;2023-05-14T09:17:08;101136.28;;;28.15;29.36
56630;BME280;42502;40.732;-74.254;2023-05-14T09:19:12;101139.09;;;28.15;29.53
56630;BME280;42502;40.732;-74.254;2023-05-14T09:21:13;101130.97;;;28.13;29.68
56630;BME280;42502;40.732;-74.254;2023-05-14T09:23:17;101135.06;;;28.12;29.67
56630;BME280;42502;40.732;-74.254;2023-05-14T09:25:18;101137.91;;;28.12;29.38
56630;BME280;42502;40.732;-74.254;2023-05-14T09:27:22;101140.31;;;28.10;29.45
56630;BME280;42502;40.732;-74.254;2023-05-14T09:29:25;101141.53;;;28.09;29.32
56630;BME280;42502;40.732;-74.254;2023-05-14T09:31:30;101138.25;;;28.07;29.71
56630;BME280;42502;40.732;-74.254;2023-05-14T09:33:31;101150.44;;;28.08;29.79
56630;BME280;42502;40.732;-74.254;2023-05-14T09:35:32;101160.97;;;28.07;29.57
56630;BME280;42502;40.732;-74.254;2023-05-14T09:37:35;101155.28;;;28.04;29.38
56630;BME280;42502;40.732;-74.254;2023-05-14T09:39:37;101167.44;;;28.04;29.63
56630;BME280;42502;40.732;-74.254;2023-05-14T09:41:38;101165.00;;;28.03;29.53
56630;BME280;42502;40.732;-74.254;2023-05-14T09:43:38;101173.91;;;28.01;29.27
56630;BME280;42502;40.732;-74.254;2023-05-14T09:45:39;101175.16;;;28.00;29.35
56630;BME280;42502;40.732;-74.254;2023-05-14T09:47:41;101180.00;;;27.99;29.74
56630;BME280;42502;40.732;-74.254;2023-05-14T09:49:42;101174.69;;;27.98;29.73
56630;BME280;42502;40.732;-74.254;2023-05-14T09:51:43;101173.09;;;27.97;29.29
56630;BME280;42502;40.732;-74.254;2023-05-14T09:53:43;101184.44;;;27.97;29.65
56630;BME280;42502;40.732;-74.254;2023-05-14T09:55:47;101191.31;;;27.96;29.08
56630;BME280;42502;40.732;-74.254;2023-05-14T09:57:51;101196.56;;;27.94;29.57
56630;BME280;42502;40.732;-74.254;2023-05-14T09:59:52;101190.88;;;27.94;29.58
56630;BME280;42502;40.732;-74.254;2023-05-14T10:01:53;101200.59;;;27.93;29.25
56630;BME280;42502;40.732;-74.254;2023-05-14T10:03:55;101201.81;;;27.92;29.49
56630;BME280;42502;40.732;-74.254;2023-05-14T10:06:03;101208.72;;;27.91;29.54
56630;BME280;42502;40.732;-74.254;2023-05-14T10:08:09;101215.59;;;27.90;29.67
56630;BME280;42502;40.732;-74.254;2023-05-14T10:10:18;101216.78;;;27.89;29.59
56630;BME280;42502;40.732;-74.254;2023-05-14T10:12:23;101217.97;;;27.88;29.46
56630;BME280;42502;40.732;-74.254;2023-05-14T10:14:27;101223.66;;;27.88;29.37
56630;BME280;42502;40.732;-74.254;2023-05-14T10:16:55;101227.28;;;27.84;29.40
56630;BME280;42502;40.732;-74.254;2023-05-14T10:19:09;101229.72;;;27.86;29.19
56630;BME280;42502;40.732;-74.254;2023-05-14T10:21:11;101232.56;;;27.86;29.59
56630;BME280;42502;40.732;-74.254;2023-05-14T10:23:14;101238.66;;;27.84;29.41
56630;BME280;42502;40.732;-74.254;2023-05-14T10:25:15;101237.03;;;27.83;29.06
56630;BME280;42502;40.732;-74.254;2023-05-14T10:27:20;101237.81;;;27.80;29.49